sensor_id;sensor_type;location;lat;lon;timestamp;pressure;altitude;pressure_sealevel;temperature
37452;BMP280;23314;51.114;6.900;2022-08-16T00:02:06;100383.31;;;24.09
37452;BMP280;23314;51.114;6.900;2022-08-16T00:04:32;100382.34;;;24.06
37452;BMP280;23314;51.114;6.900;2022-08-16T00:06:57;100396.22;;;24.03
37452;BMP280;23314;51.114;6.900;2022-08-16T00:09:23;100395.81;;;23.98
37452;BMP280;23314;51.114;6.900;2022-08-16T00:11:49;100395.34;;;23.94
37452;BMP280;23314;51.114;6.900;2022-08-16T00:14:18;100397.63;;;23.90
37452;BMP280;23314;51.114;6.900;2022-08-16T00:16:45;100395.97;;;23.82
37452;BMP280;23314;51.114;6.900;2022-08-16T00:19:16;100392.31;;;23.73
37452;BMP280;23314;51.114;6.900;2022-08-16T00:21:42;100399.53;;;23.65
37452;BMP280;23314;51.114;6.900;2022-08-16T00:24:08;100398.88;;;23.59
37452;BMP280;23314;51.114;6.900;2022-08-16T00:26:34;100397.22;;;23.50
37452;BMP280;23314;51.114;6.900;2022-08-16T00:28:59;100401.72;;;23.42
37452;BMP280;23314;51.114;6.900;2022-08-16T00:31:25;100405.22;;;23.37
37452;BMP280;23314;51.114;6.900;2022-08-16T00:33:50;100406.75;;;23.32
37452;BMP280;23314;51.114;6.900;2022-08-16T00:36:15;100409.75;;;23.29
37452;BMP280;23314;51.114;6.900;2022-08-16T00:38:41;100413.97;;;23.24
37452;BMP280;23314;51.114;6.900;2022-08-16T00:41:06;100397.16;;;23.20
37452;BMP280;23314;51.114;6.900;2022-08-16T00:43:34;100399.44;;;23.16
37452;BMP280;23314;51.114;6.900;2022-08-16T00:46:35;100404.91;;;23.10
37452;BMP280;23314;51.114;6.900;2022-08-16T00:49:05;100408.88;;;23.03
37452;BMP280;23314;51.114;6.900;2022-08-16T00:51:31;100408.94;;;22.98
37452;BMP280;23314;51.114;6.900;2022-08-16T00:53:57;100406.97;;;22.92
37452;BMP280;23314;51.114;6.900;2022-08-16T00:56:26;100411.69;;;22.86
37452;BMP280;23314;51.114;6.900;2022-08-16T00:58:52;100411.22;;;22.82
37452;BMP280;23314;51.114;6.900;2022-08-16T01:01:18;100409.25;;;22.77
37452;BMP280;23314;51.114;6.900;2022-08-16T01:03:47;100409.28;;;22.71
37452;BMP280;23314;51.114;6.900;2022-08-16T01:06:13;100412.28;;;22.68
37452;BMP280;23314;51.114;6.900;2022-08-16T01:08:41;100421.94;;;22.63
37452;BMP280;23314;51.114;6.900;2022-08-16T01:11:09;100409.81;;;22.59
37452;BMP280;23314;51.114;6.900;2022-08-16T01:13:36;100412.81;;;22.55
37452;BMP280;23314;51.114;6.900;2022-08-16T01:16:07;100405.66;;;22.52
37452;BMP280;23314;51.114;6.900;2022-08-16T01:18:41;100410.59;;;22.48
37452;BMP280;23314;51.114;6.900;2022-08-16T01:23:59;100410.38;;;22.34
37452;BMP280;23314;51.114;6.900;2022-08-16T01:26:28;100414.59;;;22.30
37452;BMP280;23314;51.114;6.900;2022-08-16T01:28:57;100414.84;;;22.26
37452;BMP280;23314;51.114;6.900;2022-08-16T01:31:25;100414.84;;;22.20
37452;BMP280;23314;51.114;6.900;2022-08-16T01:33:50;100410.94;;;22.16
37452;BMP280;23314;51.114;6.900;2022-08-16T01:36:16;100406.47;;;22.13
37452;BMP280;23314;51.114;6.900;2022-08-16T01:38:47;100407.22;;;22.08
37452;BMP280;23314;51.114;6.900;2022-08-16T01:41:26;100406.47;;;22.01
37452;BMP280;23314;51.114;6.900;2022-08-16T01:43:52;100400.53;;;21.97
37452;BMP280;23314;51.114;6.900;2022-08-16T01:46:25;100402.03;;;21.93
37452;BMP280;23314;51.114;6.900;2022-08-16T01:48:58;100399.34;;;21.87
37452;BMP280;23314;51.114;6.900;2022-08-16T01:51:25;100401.56;;;21.83
37452;BMP280;23314;51.114;6.900;2022-08-16T01:53:51;100392.66;;;21.77
37452;BMP280;23314;51.114;6.900;2022-08-16T01:56:18;100401.56;;;21.72
37452;BMP280;23314;51.114;6.900;2022-08-16T01:58:43;100397.09;;;21.68
37452;BMP280;23314;51.114;6.900;2022-08-16T02:01:09;100392.66;;;21.65
37452;BMP280;23314;51.114;6.900;2022-08-16T02:03:34;100395.16;;;21.63
37452;BMP280;23314;51.114;6.900;2022-08-16T02:06:00;100402.28;;;21.61
37452;BMP280;23314;51.114;6.900;2022-08-16T02:08:25;100401.78;;;21.57
37452;BMP280;23314;51.114;6.900;2022-08-16T02:10:52;100401.56;;;21.55
37452;BMP280;23314;51.114;6.900;2022-08-16T02:13:19;100409.44;;;21.52
37452;BMP280;23314;51.114;6.900;2022-08-16T02:15:44;100409.19;;;21.50
37452;BMP280;23314;51.114;6.900;2022-08-16T02:18:09;100410.41;;;21.49
37452;BMP280;23314;51.114;6.900;2022-08-16T02:20:37;100408.94;;;21.48
37452;BMP280;23314;51.114;6.900;2022-08-16T02:23:04;100401.31;;;21.47
37452;BMP280;23314;51.114;6.900;2022-08-16T02:25:30;100407.19;;;21.45
37452;BMP280;23314;51.114;6.900;2022-08-16T02:27:55;100416.09;;;21.46
37452;BMP280;23314;51.114;6.900;2022-08-16T02:30:26;100397.31;;;21.42
37452;BMP280;23314;51.114;6.900;2022-08-16T02:32:52;100397.06;;;21.40
37452;BMP280;23314;51.114;6.900;2022-08-16T02:35:19;100395.56;;;21.39
37452;BMP280;23314;51.114;6.900;2022-08-16T02:37:44;100398.53;;;21.36
37452;BMP280;23314;51.114;6.900;2022-08-16T02:40:10;100395.84;;;21.30
37452;BMP280;23314;51.114;6.900;2022-08-16T02:42:36;100391.88;;;21.25
37452;BMP280;23314;51.114;6.900;2022-08-16T02:45:02;100390.63;;;21.21
37452;BMP280;23314;51.114;6.900;2022-08-16T02:47:29;100393.06;;;21.19
37452;BMP280;23314;51.114;6.900;2022-08-16T02:49:54;100396.03;;;21.15
37452;BMP280;23314;51.114;6.900;2022-08-16T02:52:19;100402.44;;;21.12
37452;BMP280;23314;51.114;6.900;2022-08-16T02:54:45;100399.44;;;21.10
37452;BMP280;23314;51.114;6.900;2022-08-16T02:57:10;100399.22;;;21.08
37452;BMP280;23314;51.114;6.900;2022-08-16T02:59:35;100401.66;;;21.06
37452;BMP280;23314;51.114;6.900;2022-08-16T03:02:02;100403.13;;;21.01
37452;BMP280;23314;51.114;6.900;2022-08-16T03:04:27;100403.63;;;20.99
37452;BMP280;23314;51.114;6.900;2022-08-16T03:06:53;100397.00;;;21.01
37452;BMP280;23314;51.114;6.900;2022-08-16T03:09:19;100389.06;;;20.97
37452;BMP280;23314;51.114;6.900;2022-08-16T03:11:44;100400.41;;;20.95
37452;BMP280;23314;51.114;6.900;2022-08-16T03:14:10;100396.94;;;20.95
37452;BMP280;23314;51.114;6.900;2022-08-16T03:16:36;100400.16;;;20.93
37452;BMP280;23314;51.114;6.900;2022-08-16T03:19:03;100395.44;;;20.94
37452;BMP280;23314;51.114;6.900;2022-08-16T03:21:28;100395.97;;;20.92
37452;BMP280;23314;51.114;6.900;2022-08-16T03:23:54;100389.53;;;20.90
37452;BMP280;23314;51.114;6.900;2022-08-16T03:26:19;100395.19;;;20.86
37452;BMP280;23314;51.114;6.900;2022-08-16T03:28:45;100400.34;;;20.84
37452;BMP280;23314;51.114;6.900;2022-08-16T03:31:10;100414.41;;;20.83
37452;BMP280;23314;51.114;6.900;2022-08-16T03:33:36;100410.22;;;20.81
37452;BMP280;23314;51.114;6.900;2022-08-16T03:36:03;100414.13;;;20.80
37452;BMP280;23314;51.114;6.900;2022-08-16T03:38:29;100420.53;;;20.77
37452;BMP280;23314;51.114;6.900;2022-08-16T03:40:56;100423.72;;;20.76
37452;BMP280;23314;51.114;6.900;2022-08-16T03:43:22;100415.34;;;20.74
37452;BMP280;23314;51.114;6.900;2022-08-16T03:45:50;100413.09;;;20.72
37452;BMP280;23314;51.114;6.900;2022-08-16T03:48:16;100408.91;;;20.71
37452;BMP280;23314;51.114;6.900;2022-08-16T03:50:41;100413.34;;;20.69
37452;BMP280;23314;51.114;6.900;2022-08-16T03:53:07;100407.66;;;20.67
37452;BMP280;23314;51.114;6.900;2022-08-16T03:55:32;100417.03;;;20.66
37452;BMP280;23314;51.114;6.900;2022-08-16T03:57:58;100415.53;;;20.64
37452;BMP280;23314;51.114;6.900;2022-08-16T04:00:28;100422.19;;;20.63
37452;BMP280;23314;51.114;6.900;2022-08-16T04:02:58;100419.97;;;20.62
37452;BMP280;23314;51.114;6.900;2022-08-16T04:05:26;100419.69;;;20.60
37452;BMP280;23314;51.114;6.900;2022-08-16T04:07:52;100413.53;;;20.59
37452;BMP280;23314;51.114;6.900;2022-08-16T04:10:17;100416.75;;;20.58
37452;BMP280;23314;51.114;6.900;2022-08-16T04:12:43;100418.94;;;20.59
37452;BMP280;23314;51.114;6.900;2022-08-16T04:15:12;100416.75;;;20.58
37452;BMP280;23314;51.114;6.900;2022-08-16T04:17:39;100422.88;;;20.58
37452;BMP280;23314;51.114;6.900;2022-08-16T04:20:05;100429.53;;;20.57
37452;BMP280;23314;51.114;6.900;2022-08-16T04:22:35;100429.53;;;20.57
37452;BMP280;23314;51.114;6.900;2022-08-16T04:25:01;100424.59;;;20.56
37452;BMP280;23314;51.114;6.900;2022-08-16T04:27:26;100432.25;;;20.57
37452;BMP280;23314;51.114;6.900;2022-08-16T04:29:52;100435.22;;;20.59
37452;BMP280;23314;51.114;6.900;2022-08-16T04:32:17;100431.28;;;20.60
37452;BMP280;23314;51.114;6.900;2022-08-16T04:34:42;100437.97;;;20.65
37452;BMP280;23314;51.114;6.900;2022-08-16T04:37:08;100435.31;;;20.71
37452;BMP280;23314;51.114;6.900;2022-08-16T04:39:34;100439.47;;;20.72
37452;BMP280;23314;51.114;6.900;2022-08-16T04:42:00;100441.47;;;20.77
37452;BMP280;23314;51.114;6.900;2022-08-16T04:44:25;100440.75;;;20.82
37452;BMP280;23314;51.114;6.900;2022-08-16T04:46:51;100444.22;;;20.88
37452;BMP280;23314;51.114;6.900;2022-08-16T04:49:17;100447.25;;;20.96
37452;BMP280;23314;51.114;6.900;2022-08-16T04:51:43;100444.31;;;20.99
37452;BMP280;23314;51.114;6.900;2022-08-16T04:54:09;100439.63;;;21.06
37452;BMP280;23314;51.114;6.900;2022-08-16T04:56:35;100445.09;;;21.11
37452;BMP280;23314;51.114;6.900;2022-08-16T04:59:00;100446.34;;;21.16
37452;BMP280;23314;51.114;6.900;2022-08-16T05:01:26;100454.00;;;21.23
37452;BMP280;23314;51.114;6.900;2022-08-16T05:03:51;100461.41;;;21.28
37452;BMP280;23314;51.114;6.900;2022-08-16T05:06:17;100464.88;;;21.34
37452;BMP280;23314;51.114;6.900;2022-08-16T05:08:42;100466.88;;;21.40
37452;BMP280;23314;51.114;6.900;2022-08-16T05:11:10;100464.19;;;21.45
37452;BMP280;23314;51.114;6.900;2022-08-16T05:13:40;100469.63;;;21.51
37452;BMP280;23314;51.114;6.900;2022-08-16T05:16:06;100463.47;;;21.56
37452;BMP280;23314;51.114;6.900;2022-08-16T05:18:35;100468.91;;;21.62
37452;BMP280;23314;51.114;6.900;2022-08-16T05:21:00;100468.19;;;21.67
37452;BMP280;23314;51.114;6.900;2022-08-16T05:23:25;100466.94;;;21.74
37452;BMP280;23314;51.114;6.900;2022-08-16T05:25:50;100467.94;;;21.76
37452;BMP280;23314;51.114;6.900;2022-08-16T05:28:16;100479.31;;;21.80
37452;BMP280;23314;51.114;6.900;2022-08-16T05:30:43;100479.81;;;21.84
37452;BMP280;23314;51.114;6.900;2022-08-16T05:33:08;100480.78;;;21.93
37452;BMP280;23314;51.114;6.900;2022-08-16T05:35:35;100478.84;;;21.99
37452;BMP280;23314;51.114;6.900;2022-08-16T05:38:00;100473.91;;;22.03
37452;BMP280;23314;51.114;6.900;2022-08-16T05:40:25;100473.19;;;22.08
37452;BMP280;23314;51.114;6.900;2022-08-16T05:42:52;100476.34;;;22.12
37452;BMP280;23314;51.114;6.900;2022-08-16T05:45:17;100477.59;;;22.17
37452;BMP280;23314;51.114;6.900;2022-08-16T05:47:42;100477.34;;;22.26
37452;BMP280;23314;51.114;6.900;2022-08-16T05:50:08;100473.63;;;22.29
37452;BMP280;23314;51.114;6.900;2022-08-16T05:52:34;100476.56;;;22.37
37452;BMP280;23314;51.114;6.900;2022-08-16T05:54:59;100478.81;;;22.44
37452;BMP280;23314;51.114;6.900;2022-08-16T05:57:25;100480.75;;;22.49
37452;BMP280;23314;51.114;6.900;2022-08-16T05:59:51;100478.81;;;22.55
37452;BMP280;23314;51.114;6.900;2022-08-16T06:02:17;100485.94;;;22.64
37452;BMP280;23314;51.114;6.900;2022-08-16T06:04:42;100479.72;;;22.69
37452;BMP280;23314;51.114;6.900;2022-08-16T06:07:08;100482.19;;;22.73
37452;BMP280;23314;51.114;6.900;2022-08-16T06:09:34;100480.44;;;22.81
37452;BMP280;23314;51.114;6.900;2022-08-16T06:11:59;100491.78;;;22.85
37452;BMP280;23314;51.114;6.900;2022-08-16T06:14:27;100494.25;;;22.95
37452;BMP280;23314;51.114;6.900;2022-08-16T06:16:52;100494.97;;;23.01
37452;BMP280;23314;51.114;6.900;2022-08-16T06:19:18;100490.97;;;23.07
37452;BMP280;23314;51.114;6.900;2022-08-16T06:21:44;100490.47;;;23.15
37452;BMP280;23314;51.114;6.900;2022-08-16T06:24:09;100502.53;;;23.25
37452;BMP280;23314;51.114;6.900;2022-08-16T06:26:35;100503.22;;;23.31
37452;BMP280;23314;51.114;6.900;2022-08-16T06:29:00;100500.72;;;23.39
37452;BMP280;23314;51.114;6.900;2022-08-16T06:31:26;100500.91;;;23.47
37452;BMP280;23314;51.114;6.900;2022-08-16T06:33:51;100499.88;;;23.55
37452;BMP280;23314;51.114;6.900;2022-08-16T06:36:17;100497.38;;;23.63
37452;BMP280;23314;51.114;6.900;2022-08-16T06:38:42;100497.56;;;23.71
37452;BMP280;23314;51.114;6.900;2022-08-16T06:41:08;100494.78;;;23.76
37452;BMP280;23314;51.114;6.900;2022-08-16T06:43:34;100488.56;;;23.82
37452;BMP280;23314;51.114;6.900;2022-08-16T06:46:01;100487.28;;;23.88
37452;BMP280;23314;51.114;6.900;2022-08-16T06:48:27;100495.63;;;23.96
37452;BMP280;23314;51.114;6.900;2022-08-16T06:50:52;100502.31;;;24.01
37452;BMP280;23314;51.114;6.900;2022-08-16T06:53:19;100508.41;;;24.07
37452;BMP280;23314;51.114;6.900;2022-08-16T06:55:44;100510.59;;;24.14
37452;BMP280;23314;51.114;6.900;2022-08-16T06:58:10;100509.28;;;24.21
37452;BMP280;23314;51.114;6.900;2022-08-16T07:00:37;100517.16;;;24.30
37452;BMP280;23314;51.114;6.900;2022-08-16T07:03:03;100523.00;;;24.40
37452;BMP280;23314;51.114;6.900;2022-08-16T07:05:29;100521.69;;;24.46
37452;BMP280;23314;51.114;6.900;2022-08-16T07:07:56;100521.63;;;24.52
37452;BMP280;23314;51.114;6.900;2022-08-16T07:10:22;100525.50;;;24.62
37452;BMP280;23314;51.114;6.900;2022-08-16T07:12:47;100529.63;;;24.69
37452;BMP280;23314;51.114;6.900;2022-08-16T07:15:16;100531.50;;;24.80
37452;BMP280;23314;51.114;6.900;2022-08-16T07:17:42;100537.56;;;24.92
37452;BMP280;23314;51.114;6.900;2022-08-16T07:20:09;100540.22;;;24.97
37452;BMP280;23314;51.114;6.900;2022-08-16T07:22:35;100542.38;;;25.04
37452;BMP280;23314;51.114;6.900;2022-08-16T07:25:01;100548.28;;;25.09
37452;BMP280;23314;51.114;6.900;2022-08-16T07:27:26;100536.03;;;25.15
37452;BMP280;23314;51.114;6.900;2022-08-16T07:29:51;100531.78;;;25.20
37452;BMP280;23314;51.114;6.900;2022-08-16T07:32:17;100533.66;;;25.25
37452;BMP280;23314;51.114;6.900;2022-08-16T07:34:45;100534.34;;;25.31
37452;BMP280;23314;51.114;6.900;2022-08-16T07:37:10;100526.06;;;25.37
37452;BMP280;23314;51.114;6.900;2022-08-16T07:39:37;100528.19;;;25.44
37452;BMP280;23314;51.114;6.900;2022-08-16T07:42:03;100522.16;;;25.51
37452;BMP280;23314;51.114;6.900;2022-08-16T07:44:28;100520.25;;;25.59
37452;BMP280;23314;51.114;6.900;2022-08-16T07:46:54;100523.66;;;25.66
37452;BMP280;23314;51.114;6.900;2022-08-16T07:49:20;100519.56;;;25.72
37452;BMP280;23314;51.114;6.900;2022-08-16T07:51:46;100527.94;;;25.80
37452;BMP280;23314;51.114;6.900;2022-08-16T07:54:11;100534.78;;;25.87
37452;BMP280;23314;51.114;6.900;2022-08-16T07:56:37;100541.38;;;25.91
37452;BMP280;23314;51.114;6.900;2022-08-16T07:59:03;100548.22;;;25.98
37452;BMP280;23314;51.114;6.900;2022-08-16T08:01:29;100552.63;;;26.01
37452;BMP280;23314;51.114;6.900;2022-08-16T08:03:55;100548.34;;;26.06
37452;BMP280;23314;51.114;6.900;2022-08-16T08:06:23;100548.50;;;26.13
37452;BMP280;23314;51.114;6.900;2022-08-16T08:08:49;100553.72;;;26.25
37452;BMP280;23314;51.114;6.900;2022-08-16T08:11:15;100554.28;;;26.37
37452;BMP280;23314;51.114;6.900;2022-08-16T08:13:41;100554.91;;;26.43
37452;BMP280;23314;51.114;6.900;2022-08-16T08:16:06;100547.88;;;26.47
37452;BMP280;23314;51.114;6.900;2022-08-16T08:18:34;100546.69;;;26.56
37452;BMP280;23314;51.114;6.900;2022-08-16T08:21:00;100551.53;;;26.63
37452;BMP280;23314;51.114;6.900;2022-08-16T08:23:25;100554.28;;;26.63
37452;BMP280;23314;51.114;6.900;2022-08-16T08:25:51;100555.22;;;26.66
37452;BMP280;23314;51.114;6.900;2022-08-16T08:28:17;100564.28;;;26.74
37452;BMP280;23314;51.114;6.900;2022-08-16T08:30:43;100561.59;;;26.82
37452;BMP280;23314;51.114;6.900;2022-08-16T08:33:08;100565.94;;;26.91
37452;BMP280;23314;51.114;6.900;2022-08-16T08:35:34;100559.59;;;26.96
37452;BMP280;23314;51.114;6.900;2022-08-16T08:38:00;100561.16;;;27.04
37452;BMP280;23314;51.114;6.900;2022-08-16T08:40:27;100564.53;;;27.11
37452;BMP280;23314;51.114;6.900;2022-08-16T08:42:58;100574.41;;;27.14
37452;BMP280;23314;51.114;6.900;2022-08-16T08:45:24;100573.34;;;27.17
37452;BMP280;23314;51.114;6.900;2022-08-16T08:47:50;100571.97;;;27.23
37452;BMP280;23314;51.114;6.900;2022-08-16T08:50:15;100572.03;;;27.31
37452;BMP280;23314;51.114;6.900;2022-08-16T08:52:42;100568.63;;;27.38
37452;BMP280;23314;51.114;6.900;2022-08-16T08:55:10;100577.09;;;27.40
37452;BMP280;23314;51.114;6.900;2022-08-16T08:57:36;100578.00;;;27.43
37452;BMP280;23314;51.114;6.900;2022-08-16T09:00:03;100581.78;;;27.53
37452;BMP280;23314;51.114;6.900;2022-08-16T09:02:29;100584.56;;;27.61
37452;BMP280;23314;51.114;6.900;2022-08-16T09:04:54;100582.97;;;27.66
37452;BMP280;23314;51.114;6.900;2022-08-16T09:07:20;100577.38;;;27.71
37452;BMP280;23314;51.114;6.900;2022-08-16T09:09:46;100587.22;;;27.74
37452;BMP280;23314;51.114;6.900;2022-08-16T09:12:11;100579.59;;;27.81
37452;BMP280;23314;51.114;6.900;2022-08-16T09:14:37;100589.56;;;27.91
37452;BMP280;23314;51.114;6.900;2022-08-16T09:17:04;100592.31;;;27.91
37452;BMP280;23314;51.114;6.900;2022-08-16T09:19:33;100585.69;;;27.87
37452;BMP280;23314;51.114;6.900;2022-08-16T09:22:03;100576.06;;;27.93
37452;BMP280;23314;51.114;6.900;2022-08-16T09:24:29;100580.19;;;28.08
37452;BMP280;23314;51.114;6.900;2022-08-16T09:26:55;100582.59;;;28.11
37452;BMP280;23314;51.114;6.900;2022-08-16T09:29:21;100594.28;;;28.12
37452;BMP280;23314;51.114;6.900;2022-08-16T09:31:46;100583.88;;;28.10
37452;BMP280;23314;51.114;6.900;2022-08-16T09:34:13;100589.72;;;28.07
37452;BMP280;23314;51.114;6.900;2022-08-16T09:36:38;100585.88;;;28.10
37452;BMP280;23314;51.114;6.900;2022-08-16T09:39:03;100580.78;;;28.14
37452;BMP280;23314;51.114;6.900;2022-08-16T09:41:31;100594.03;;;28.23
37452;BMP280;23314;51.114;6.900;2022-08-16T09:43:57;100590.63;;;28.38
37452;BMP280;23314;51.114;6.900;2022-08-16T09:46:22;100577.66;;;28.46
37452;BMP280;23314;51.114;6.900;2022-08-16T09:48:50;100577.91;;;28.56
37452;BMP280;23314;51.114;6.900;2022-08-16T09:51:17;100589.13;;;28.66
37452;BMP280;23314;51.114;6.900;2022-08-16T09:53:48;100584.38;;;28.74
37452;BMP280;23314;51.114;6.900;2022-08-16T09:56:30;100573.44;;;28.82
37452;BMP280;23314;51.114;6.900;2022-08-16T09:58:56;100585.19;;;28.90
37452;BMP280;23314;51.114;6.900;2022-08-16T10:01:22;100585.22;;;28.98
37452;BMP280;23314;51.114;6.900;2022-08-16T10:03:49;100580.66;;;29.08
37452;BMP280;23314;51.114;6.900;2022-08-16T10:06:14;100576.47;;;29.15
37452;BMP280;23314;51.114;6.900;2022-08-16T10:08:39;100583.63;;;29.25
37452;BMP280;23314;51.114;6.900;2022-08-16T10:11:05;100580.50;;;29.29
37452;BMP280;23314;51.114;6.900;2022-08-16T10:13:49;100581.47;;;29.32
37452;BMP280;23314;51.114;6.900;2022-08-16T10:16:14;100574.28;;;29.36
37452;BMP280;23314;51.114;6.900;2022-08-16T10:18:41;100574.09;;;29.42
37452;BMP280;23314;51.114;6.900;2022-08-16T10:21:07;100564.78;;;29.53
37452;BMP280;23314;51.114;6.900;2022-08-16T10:23:33;100564.25;;;29.62
37452;BMP280;23314;51.114;6.900;2022-08-16T10:28:28;100567.50;;;29.84
37452;BMP280;23314;51.114;6.900;2022-08-16T10:30:53;100556.84;;;29.95
37452;BMP280;23314;51.114;6.900;2022-08-16T10:33:19;100557.03;;;30.05
37452;BMP280;23314;51.114;6.900;2022-08-16T10:35:45;100558.16;;;30.10
37452;BMP280;23314;51.114;6.900;2022-08-16T10:38:12;100562.69;;;30.15
37452;BMP280;23314;51.114;6.900;2022-08-16T10:40:41;100563.03;;;30.19
37452;BMP280;23314;51.114;6.900;2022-08-16T10:43:07;100565.06;;;30.26
37452;BMP280;23314;51.114;6.900;2022-08-16T10:45:32;100568.66;;;30.36
37452;BMP280;23314;51.114;6.900;2022-08-16T10:47:58;100568.47;;;30.42
37452;BMP280;23314;51.114;6.900;2022-08-16T10:50:25;100571.59;;;30.46
37452;BMP280;23314;51.114;6.900;2022-08-16T10:52:51;100571.53;;;30.54
37452;BMP280;23314;51.114;6.900;2022-08-16T10:55:18;100577.78;;;30.54
37452;BMP280;23314;51.114;6.900;2022-08-16T10:57:44;100573.56;;;30.53
37452;BMP280;23314;51.114;6.900;2022-08-16T11:00:12;100569.28;;;30.60
37452;BMP280;23314;51.114;6.900;2022-08-16T11:02:39;100561.56;;;30.66
37452;BMP280;23314;51.114;6.900;2022-08-16T11:05:08;100567.44;;;30.70
37452;BMP280;23314;51.114;6.900;2022-08-16T11:07:38;100560.59;;;30.79
37452;BMP280;23314;51.114;6.900;2022-08-16T11:10:04;100564.94;;;30.90
37452;BMP280;23314;51.114;6.900;2022-08-16T11:12:29;100570.38;;;30.98
37452;BMP280;23314;51.114;6.900;2022-08-16T11:14:54;100571.47;;;31.02
37452;BMP280;23314;51.114;6.900;2022-08-16T11:17:20;100567.38;;;31.11
37452;BMP280;23314;51.114;6.900;2022-08-16T11:19:45;100572.16;;;31.10
37452;BMP280;23314;51.114;6.900;2022-08-16T11:22:10;100563.69;;;31.16
37452;BMP280;23314;51.114;6.900;2022-08-16T11:24:36;100561.09;;;31.18
37452;BMP280;23314;51.114;6.900;2022-08-16T11:27:08;100567.84;;;31.25
37452;BMP280;23314;51.114;6.900;2022-08-16T11:29:34;100567.53;;;31.38
37452;BMP280;23314;51.114;6.900;2022-08-16T11:32:03;100573.47;;;31.52
37452;BMP280;23314;51.114;6.900;2022-08-16T11:34:30;100574.13;;;31.60
37452;BMP280;23314;51.114;6.900;2022-08-16T11:36:56;100578.69;;;31.65
37452;BMP280;23314;51.114;6.900;2022-08-16T11:39:22;100565.88;;;31.78
37452;BMP280;23314;51.114;6.900;2022-08-16T11:41:47;100566.53;;;31.86
37452;BMP280;23314;51.114;6.900;2022-08-16T11:44:12;100572.16;;;31.96
37452;BMP280;23314;51.114;6.900;2022-08-16T11:46:38;100572.38;;;32.08
37452;BMP280;23314;51.114;6.900;2022-08-16T11:49:04;100559.53;;;32.20
37452;BMP280;23314;51.114;6.900;2022-08-16T11:51:29;100567.00;;;32.27
37452;BMP280;23314;51.114;6.900;2022-08-16T11:53:55;100553.78;;;32.25
37452;BMP280;23314;51.114;6.900;2022-08-16T11:56:21;100563.03;;;32.20
37452;BMP280;23314;51.114;6.900;2022-08-16T11:58:46;100568.06;;;32.14
37452;BMP280;23314;51.114;6.900;2022-08-16T12:01:11;100566.34;;;32.19
37452;BMP280;23314;51.114;6.900;2022-08-16T12:03:40;100561.72;;;32.21
37452;BMP280;23314;51.114;6.900;2022-08-16T12:06:11;100565.44;;;32.34
37452;BMP280;23314;51.114;6.900;2022-08-16T12:08:39;100564.94;;;32.45
37452;BMP280;23314;51.114;6.900;2022-08-16T12:11:05;100571.38;;;32.57
37452;BMP280;23314;51.114;6.900;2022-08-16T12:13:31;100568.34;;;32.63
37452;BMP280;23314;51.114;6.900;2022-08-16T12:15:56;100568.69;;;32.67
37452;BMP280;23314;51.114;6.900;2022-08-16T12:18:22;100565.03;;;32.65
37452;BMP280;23314;51.114;6.900;2022-08-16T12:20:47;100565.75;;;32.65
37452;BMP280;23314;51.114;6.900;2022-08-16T12:23:12;100561.31;;;32.79
37452;BMP280;23314;51.114;6.900;2022-08-16T12:25:38;100553.25;;;33.01
37452;BMP280;23314;51.114;6.900;2022-08-16T12:28:07;100556.34;;;33.15
37452;BMP280;23314;51.114;6.900;2022-08-16T12:30:36;100556.53;;;33.36
37452;BMP280;23314;51.114;6.900;2022-08-16T12:33:04;100563.09;;;33.61
37452;BMP280;23314;51.114;6.900;2022-08-16T12:35:32;100554.22;;;33.82
37452;BMP280;23314;51.114;6.900;2022-08-16T12:37:58;100559.88;;;34.03
37452;BMP280;23314;51.114;6.900;2022-08-16T12:40:27;100566.16;;;34.04
37452;BMP280;23314;51.114;6.900;2022-08-16T12:42:55;100569.63;;;34.04
37452;BMP280;23314;51.114;6.900;2022-08-16T12:45:22;100571.09;;;34.05
37452;BMP280;23314;51.114;6.900;2022-08-16T12:47:47;100573.88;;;34.05
37452;BMP280;23314;51.114;6.900;2022-08-16T12:50:31;100564.06;;;34.14
37452;BMP280;23314;51.114;6.900;2022-08-16T12:52:57;100563.63;;;34.27
37452;BMP280;23314;51.114;6.900;2022-08-16T12:55:23;100556.72;;;34.48
37452;BMP280;23314;51.114;6.900;2022-08-16T12:57:53;100561.16;;;34.72
37452;BMP280;23314;51.114;6.900;2022-08-16T13:00:19;100568.31;;;34.97
37452;BMP280;23314;51.114;6.900;2022-08-16T13:02:45;100564.63;;;35.26
37452;BMP280;23314;51.114;6.900;2022-08-16T13:05:12;100558.19;;;35.45
37452;BMP280;23314;51.114;6.900;2022-08-16T13:07:38;100554.38;;;35.50
37452;BMP280;23314;51.114;6.900;2022-08-16T13:10:05;100552.53;;;35.43
37452;BMP280;23314;51.114;6.900;2022-08-16T13:12:42;100553.13;;;35.41
37452;BMP280;23314;51.114;6.900;2022-08-16T13:15:12;100551.56;;;35.38
37452;BMP280;23314;51.114;6.900;2022-08-16T13:17:38;100549.44;;;35.48
37452;BMP280;23314;51.114;6.900;2022-08-16T13:20:07;100555.88;;;35.41
37452;BMP280;23314;51.114;6.900;2022-08-16T13:22:34;100551.88;;;35.32
37452;BMP280;23314;51.114;6.900;2022-08-16T13:25:00;100552.25;;;35.39
37452;BMP280;23314;51.114;6.900;2022-08-16T13:27:26;100550.50;;;35.43
37452;BMP280;23314;51.114;6.900;2022-08-16T13:29:51;100544.41;;;35.35
37452;BMP280;23314;51.114;6.900;2022-08-16T13:32:16;100541.09;;;35.27
37452;BMP280;23314;51.114;6.900;2022-08-16T13:34:42;100542.19;;;35.22
37452;BMP280;23314;51.114;6.900;2022-08-16T13:37:07;100539.72;;;35.38
37452;BMP280;23314;51.114;6.900;2022-08-16T13:39:33;100539.88;;;35.51
37452;BMP280;23314;51.114;6.900;2022-08-16T13:41:59;100540.16;;;35.56
37452;BMP280;23314;51.114;6.900;2022-08-16T13:44:27;100531.44;;;35.49
37452;BMP280;23314;51.114;6.900;2022-08-16T13:46:52;100540.38;;;35.48
37452;BMP280;23314;51.114;6.900;2022-08-16T13:49:18;100537.06;;;35.40
37452;BMP280;23314;51.114;6.900;2022-08-16T13:51:43;100542.03;;;35.20
37452;BMP280;23314;51.114;6.900;2022-08-16T13:54:08;100546.28;;;34.99
37452;BMP280;23314;51.114;6.900;2022-08-16T13:56:35;100541.38;;;34.88
37452;BMP280;23314;51.114;6.900;2022-08-16T13:59:01;100543.59;;;34.80